Time;durP1;ratioP1;P1;durP2;ratioP2;P2;SDS_P1;SDS_P2;PMS_P1;PMS_P2;Temp;Humidity;BMP_temperature;BMP_pressure;BME280_temperature;BME280_humidity;BME280_pressure;Samples;Min_cycle;Max_cycle;Signal;HPM_P1;HPM_P2
2020/12/23 00:00:19;;;;;;;81.60;54.03;;;;;;;21.02;25.59;95070.19;5054054;28;20052;-43
2020/12/23 00:02:46;;;;;;;77.00;50.35;;;;;;;20.93;25.83;95068.41;5054120;28;20056;-44
2020/12/23 00:05:15;;;;;;;75.50;52.35;;;;;;;20.86;25.97;95060.25;5065395;28;20049;-55
2020/12/23 00:07:43;;;;;;;71.65;51.63;;;;;;;21.03;25.52;95069.06;5073928;28;20454;-42
2020/12/23 00:10:10;;;;;;;77.53;52.97;;;;;;;21.10;25.49;95072.72;5074101;28;20510;-44
2020/12/23 00:12:37;;;;;;;69.63;50.33;;;;;;;21.21;25.39;95070.38;5081592;28;20469;-44
2020/12/23 00:15:07;;;;;;;76.03;50.58;;;;;;;20.61;26.18;95085.28;5083314;28;20059;-43
2020/12/23 00:17:35;;;;;;;67.55;49.17;;;;;;;21.01;25.82;95076.59;5073848;28;20055;-43
2020/12/23 00:20:03;;;;;;;63.63;48.42;;;;;;;20.84;26.19;95072.31;5074019;28;20056;-43
2020/12/23 00:22:30;;;;;;;72.97;50.60;;;;;;;20.87;25.99;95071.66;5073139;28;20059;-48
2020/12/23 00:24:57;;;;;;;68.47;49.28;;;;;;;20.97;25.86;95075.72;5073790;28;20052;-56
2020/12/23 00:27:24;;;;;;;67.45;48.20;;;;;;;20.73;26.14;95079.94;5074038;28;20443;-43
2020/12/23 00:29:51;;;;;;;70.95;48.25;;;;;;;20.83;25.96;95087.50;5074024;28;20079;-44
2020/12/23 00:32:19;;;;;;;63.55;46.63;;;;;;;20.96;25.96;95082.16;5055814;28;20044;-43
2020/12/23 00:34:47;;;;;;;63.38;46.45;;;;;;;20.78;25.97;95079.72;5072740;28;20481;-44
2020/12/23 00:37:14;;;;;;;67.93;46.45;;;;;;;20.57;26.37;95081.75;5073104;28;20493;-43
2020/12/23 00:39:41;;;;;;;64.55;46.17;;;;;;;20.53;26.36;95083.47;5073200;28;20059;-45
2020/12/23 00:42:09;;;;;;;61.20;44.20;;;;;;;20.36;26.81;95086.34;5076749;28;20662;-44
2020/12/23 00:44:36;;;;;;;65.00;44.13;;;;;;;20.57;26.58;95084.41;5087651;28;20059;-53
2020/12/23 00:47:03;;;;;;;60.60;43.03;;;;;;;20.84;26.03;95070.44;5073148;28;20056;-43
2020/12/23 00:49:30;;;;;;;59.53;42.05;;;;;;;20.88;26.00;95073.97;5055299;28;20063;-49
2020/12/23 00:51:57;;;;;;;62.88;43.78;;;;;;;20.55;26.37;95081.28;5055444;28;20056;-51
2020/12/23 00:54:24;;;;;;;58.53;41.80;;;;;;;20.67;26.40;95078.63;5054943;28;20048;-44
2020/12/23 00:56:51;;;;;;;61.38;42.63;;;;;;;20.87;25.87;95061.78;5071901;28;20052;-44
2020/12/23 00:59:19;;;;;;;52.13;40.35;;;;;;;20.72;26.36;95054.50;5073219;28;20439;-55
2020/12/23 01:01:46;;;;;;;56.10;40.40;;;;;;;20.67;26.30;95061.91;5073119;28;20379;-51
2020/12/23 01:04:13;;;;;;;63.15;41.92;;;;;;;20.89;25.93;95061.47;5072928;28;20048;-55
2020/12/23 01:06:40;;;;;;;55.92;39.40;;;;;;;20.73;26.21;95045.41;5073459;28;20371;-43
2020/12/23 01:09:07;;;;;;;57.60;40.03;;;;;;;20.83;26.10;95057.50;5073379;28;20055;-44
2020/12/23 01:11:34;;;;;;;56.67;40.85;;;;;;;20.94;25.61;95055.91;5073323;28;20044;-43
2020/12/23 01:14:01;;;;;;;58.55;41.05;;;;;;;21.00;25.59;95059.09;5092504;28;20437;-44
2020/12/23 01:16:28;;;;;;;56.25;40.30;;;;;;;20.99;25.59;95057.56;5073322;28;20048;-43
2020/12/23 01:18:55;;;;;;;57.42;40.85;;;;;;;20.73;26.12;95049.94;5073397;28;20087;-44
2020/12/23 01:21:22;;;;;;;57.92;41.47;;;;;;;20.81;25.88;95065.75;5073089;28;20056;-44
2020/12/23 01:23:49;;;;;;;60.15;43.55;;;;;;;20.68;26.16;95066.91;5073145;28;20052;-44
2020/12/23 01:26:17;;;;;;;58.38;42.60;;;;;;;20.88;25.94;95060.69;5073088;28;20044;-56
2020/12/23 01:28:45;;;;;;;61.95;43.63;;;;;;;21.13;25.76;95063.31;5073190;28;20040;-57
2020/12/23 01:31:13;;;;;;;60.40;43.38;;;;;;;21.05;25.95;95067.63;5073181;28;20041;-52
2020/12/23 01:33:40;;;;;;;64.65;44.78;;;;;;;20.67;26.27;95065.34;5073298;28;20044;-52
2020/12/23 01:36:07;;;;;;;63.00;44.25;;;;;;;21.03;25.75;95053.13;5076885;28;20075;-49
2020/12/23 01:38:35;;;;;;;59.30;43.17;;;;;;;21.03;25.99;95047.81;5076933;28;20083;-44
2020/12/23 01:41:05;;;;;;;70.50;48.95;;;;;;;21.17;25.49;95045.56;5076618;28;20056;-48
2020/12/23 01:43:33;;;;;;;67.38;47.30;;;;;;;21.71;24.72;95029.22;5090105;28;20051;-43
2020/12/23 01:46:00;;;;;;;66.72;48.22;;;;;;;21.22;25.50;95034.69;5071285;28;20064;-49
2020/12/23 01:48:31;;;;;;;78.43;53.20;;;;;;;21.05;25.57;95040.25;5076666;28;20394;-43
2020/12/23 01:51:01;;;;;;;79.45;54.33;;;;;;;21.30;25.26;95023.16;5076520;28;20063;-43
2020/12/23 01:53:28;;;;;;;80.30;56.67;;;;;;;21.21;25.31;95027.81;5076398;28;20044;-45
2020/12/23 01:56:00;;;;;;;76.25;53.83;;;;;;;21.20;25.33;95021.72;5081977;28;20044;-44
2020/12/23 01:58:27;;;;;;;86.05;57.28;;;;;;;20.97;25.85;95018.03;5097108;28;20063;-44
2020/12/23 02:00:56;;;;;;;82.10;56.78;;;;;;;21.10;25.64;95021.44;5096404;28;20059;-51
2020/12/23 02:03:23;;;;;;;80.60;57.80;;;;;;;20.91;25.84;95016.72;5096051;28;20044;-43
2020/12/23 02:05:50;;;;;;;83.82;58.92;;;;;;;21.00;25.79;95012.03;5091070;28;20060;-43
2020/12/23 02:08:17;;;;;;;80.47;57.17;;;;;;;20.98;25.82;95018.81;5058903;28;20052;-44
2020/12/23 02:10:45;;;;;;;79.63;57.13;;;;;;;20.87;25.97;95021.94;5076505;28;20048;-45
2020/12/23 02:13:12;;;;;;;79.78;58.47;;;;;;;20.89;26.00;95018.94;5088365;28;20050;-48
2020/12/23 02:15:39;;;;;;;80.82;57.55;;;;;;;21.25;25.64;95007.47;5092132;28;20052;-43
2020/12/23 02:18:06;;;;;;;83.15;57.67;;;;;;;20.86;26.14;95015.06;5075948;28;20048;-43
2020/12/23 02:20:33;;;;;;;80.75;57.13;;;;;;;21.07;26.08;95011.47;5075788;28;20052;-44
2020/12/23 02:23:00;;;;;;;79.97;56.15;;;;;;;20.91;26.01;95009.53;5076017;28;20057;-44
2020/12/23 02:25:27;;;;;;;72.40;53.00;;;;;;;20.99;25.99;95007.84;5063384;28;20057;-42
2020/12/23 02:27:54;;;;;;;76.78;52.78;;;;;;;20.84;25.91;95013.88;5075231;28;20064;-44
2020/12/23 02:30:22;;;;;;;79.70;53.72;;;;;;;20.86;25.94;95020.38;5075757;28;20051;-43
2020/12/23 02:32:49;;;;;;;80.68;55.15;;;;;;;21.46;25.20;95013.38;5075734;28;20041;-44
2020/12/23 02:35:16;;;;;;;81.32;55.40;;;;;;;21.37;25.24;95010.09;5075705;28;20367;-43
2020/12/23 02:37:43;;;;;;;80.60;54.78;;;;;;;21.48;25.52;95007.69;5075689;28;20055;-45
2020/12/23 02:40:10;;;;;;;76.60;53.45;;;;;;;21.45;25.37;95001.19;5075708;28;20052;-45
2020/12/23 02:42:37;;;;;;;72.50;52.15;;;;;;;21.23;25.69;94993.69;5083014;28;20060;-45
2020/12/23 02:45:05;;;;;;;71.95;52.75;;;;;;;21.20;25.76;94999.69;5075967;28;20082;-44
2020/12/23 02:47:32;;;;;;;77.25;54.80;;;;;;;21.18;25.83;94993.94;5056872;28;20358;-44
2020/12/23 02:49:59;;;;;;;78.75;53.85;;;;;;;21.23;25.56;94993.69;5075287;28;20052;-44
2020/12/23 02:52:26;;;;;;;75.15;54.47;;;;;;;21.33;25.45;94995.13;5073822;28;20083;-44
2020/12/23 02:54:53;;;;;;;79.15;55.13;;;;;;;21.42;25.15;94991.22;5055060;28;20337;-44
2020/12/23 02:57:20;;;;;;;77.07;55.15;;;;;;;21.21;25.68;94995.91;5057255;28;20068;-44
2020/12/23 02:59:47;;;;;;;80.35;55.13;;;;;;;21.26;25.44;94993.03;5075148;28;20060;-44
2020/12/23 03:02:14;;;;;;;81.45;57.92;;;;;;;21.01;26.04;94996.88;5075196;28;20063;-43
2020/12/23 03:04:41;;;;;;;77.40;55.53;;;;;;;21.39;25.55;95002.53;5075295;28;20055;-44
2020/12/23 03:07:08;;;;;;;77.82;54.35;;;;;;;21.18;25.90;95001.91;5074906;28;20347;-44
2020/12/23 03:09:35;;;;;;;77.45;54.78;;;;;;;21.21;25.86;95006.56;5075103;28;20562;-44
2020/12/23 03:12:02;;;;;;;79.60;56.28;;;;;;;21.15;25.74;95002.59;5077590;28;20055;-44
2020/12/23 03:14:29;;;;;;;80.50;56.47;;;;;;;20.94;26.12;95010.72;5095092;28;20048;-43
2020/12/23 03:16:56;;;;;;;77.35;54.85;;;;;;;21.21;25.97;95011.88;5082262;28;20055;-45
2020/12/23 03:19:23;;;;;;;78.95;55.00;;;;;;;21.22;25.75;95021.41;5074769;28;20052;-45
2020/12/23 03:21:50;;;;;;;78.22;55.67;;;;;;;21.40;25.55;95013.94;5075010;28;20510;-44
2020/12/23 03:24:18;;;;;;;75.88;54.78;;;;;;;21.22;25.80;95008.09;5074325;28;20098;-44
2020/12/23 03:26:45;;;;;;;75.90;54.58;;;;;;;21.21;25.86;95001.25;5074403;28;20044;-44
2020/12/23 03:29:12;;;;;;;81.20;55.90;;;;;;;21.36;25.54;95005.88;5074527;28;20051;-44
2020/12/23 03:31:40;;;;;;;80.07;55.70;;;;;;;21.34;25.84;95016.09;5074633;28;20739;-44
2020/12/23 03:34:07;;;;;;;78.07;56.15;;;;;;;21.19;25.92;95008.78;5074497;28;20053;-44
2020/12/23 03:36:34;;;;;;;76.60;54.53;;;;;;;21.39;25.45;95002.53;5074435;28;20045;-44
2020/12/23 03:39:02;;;;;;;72.30;52.88;;;;;;;21.47;25.22;94998.94;5074676;28;20059;-43
2020/12/23 03:41:29;;;;;;;77.75;55.05;;;;;;;21.80;25.13;95013.84;5074365;28;20371;-44
2020/12/23 03:43:56;;;;;;;77.55;56.30;;;;;;;21.34;25.54;95012.63;5092673;28;20443;-44
2020/12/23 03:46:23;;;;;;;78.93;56.22;;;;;;;21.43;25.57;95007.94;5087379;28;20454;-44
2020/12/23 03:48:51;;;;;;;79.05;56.92;;;;;;;21.13;25.82;95023.44;5074464;28;20051;-44
2020/12/23 03:51:18;;;;;;;77.50;55.22;;;;;;;21.11;26.05;95017.69;5074264;28;20053;-44
2020/12/23 03:53:45;;;;;;;75.00;55.25;;;;;;;21.13;26.16;95020.78;5074094;28;20055;-56
2020/12/23 03:56:12;;;;;;;78.68;56.05;;;;;;;21.38;25.65;95016.94;5073526;28;20049;-56
2020/12/23 03:58:40;;;;;;;79.03;56.10;;;;;;;21.17;26.05;95016.31;5073460;28;20347;-44
2020/12/23 04:01:07;;;;;;;76.05;55.58;;;;;;;21.26;26.01;95013.53;5073964;28;20048;-45
2020/12/23 04:03:34;;;;;;;82.20;56.33;;;;;;;21.40;25.63;95020.03;5073899;28;20051;-43
2020/12/23 04:06:02;;;;;;;81.38;55.80;;;;;;;21.01;26.13;95021.56;5073836;28;20052;-44
2020/12/23 04:08:30;;;;;;;80.97;58.03;;;;;;;21.35;25.81;95017.63;5074012;28;20044;-45
2020/12/23 04:10:57;;;;;;;75.90;55.20;;;;;;;21.11;26.15;95025.66;5073889;28;20057;-56
2020/12/23 04:13:24;;;;;;;78.32;54.22;;;;;;;21.09;26.06;95025.22;5088061;28;20064;-55
2020/12/23 04:15:51;;;;;;;85.20;55.50;;;;;;;20.92;26.40;95027.00;5092187;28;20047;-44
2020/12/23 04:18:19;;;;;;;81.05;57.08;;;;;;;21.32;25.83;95018.28;5073869;28;20048;-44
2020/12/23 04:20:46;;;;;;;75.82;53.95;;;;;;;21.39;25.79;95023.81;5073858;28;20079;-43
2020/12/23 04:23:14;;;;;;;74.10;55.05;;;;;;;21.36;25.81;95016.50;5073668;28;20049;-44
2020/12/23 04:25:41;;;;;;;78.22;54.55;;;;;;;21.31;25.78;95027.38;5073761;28;20060;-45
2020/12/23 04:28:08;;;;;;;76.97;56.22;;;;;;;21.17;25.99;95026.97;5073792;28;20367;-43
2020/12/23 04:30:35;;;;;;;73.00;54.22;;;;;;;21.48;25.51;95027.09;5072775;28;20055;-43
2020/12/23 04:33:03;;;;;;;72.90;53.08;;;;;;;21.34;25.84;95026.72;5072831;28;20051;-45
2020/12/23 04:35:30;;;;;;;72.93;52.63;;;;;;;21.59;25.56;95031.91;5073157;28;20048;-58
2020/12/23 04:37:57;;;;;;;78.45;53.72;;;;;;;21.44;25.78;95036.88;5072954;28;20048;-49
2020/12/23 04:40:24;;;;;;;77.70;54.45;;;;;;;21.36;25.96;95031.69;5073466;28;20059;-45
2020/12/23 04:42:52;;;;;;;73.88;51.83;;;;;;;21.35;25.78;95033.59;5082720;28;20048;-49
2020/12/23 04:45:20;;;;;;;68.28;51.25;;;;;;;21.85;25.24;95034.88;5093398;28;20040;-54
2020/12/23 04:47:47;;;;;;;89.82;64.38;;;;;;;21.77;25.51;95038.50;5058136;28;20048;-52
2020/12/23 04:50:15;;;;;;;84.90;64.75;;;;;;;21.55;25.62;95031.81;5055379;28;20056;-44
2020/12/23 04:52:42;;;;;;;82.25;61.13;;;;;;;21.83;25.43;95037.13;5072860;28;20044;-44
2020/12/23 04:55:09;;;;;;;80.75;55.63;;;;;;;21.54;25.48;95025.72;5072896;28;20055;-45
2020/12/23 04:57:40;;;;;;;70.82;52.50;;;;;;;21.78;25.40;95019.53;5054869;28;20056;-43
2020/12/23 05:00:07;;;;;;;73.68;51.78;;;;;;;21.77;25.22;95022.53;5073060;28;20391;-42
2020/12/23 05:02:35;;;;;;;67.20;48.85;;;;;;;21.72;25.21;95020.13;5073332;28;20367;-42
2020/12/23 05:05:02;;;;;;;65.95;48.55;;;;;;;21.57;25.19;95018.94;5073284;28;20059;-45
2020/12/23 05:07:29;;;;;;;69.85;48.83;;;;;;;21.55;25.46;95027.28;5073199;28;20079;-44
2020/12/23 05:09:56;;;;;;;68.93;46.83;;;;;;;21.55;25.81;95023.84;5075945;28;20083;-45
2020/12/23 05:12:23;;;;;;;62.83;45.60;;;;;;;21.79;25.51;95025.63;5082872;28;20055;-44
2020/12/23 05:14:50;;;;;;;64.97;46.45;;;;;;;21.70;25.61;95033.75;5097269;28;20043;-44
2020/12/23 05:17:18;;;;;;;64.32;47.03;;;;;;;21.64;25.53;95024.47;5085507;28;20490;-44
2020/12/23 05:19:46;;;;;;;59.55;44.13;;;;;;;21.78;25.51;95030.16;5059345;28;20052;-43
2020/12/23 05:22:16;;;;;;;64.43;45.45;;;;;;;21.66;25.50;95026.81;5077008;28;20056;-44
2020/12/23 05:24:43;;;;;;;65.57;46.58;;;;;;;21.65;25.54;95019.94;5077001;28;20056;-44
2020/12/23 05:27:11;;;;;;;65.00;48.85;;;;;;;21.65;25.51;95025.25;5076597;28;20455;-44
2020/12/23 05:29:46;;;;;;;70.63;49.92;;;;;;;21.64;25.42;95024.47;5077007;28;20056;-48
2020/12/23 05:32:13;;;;;;;66.80;48.42;;;;;;;21.62;25.68;95034.69;5076876;28;20048;-43
2020/12/23 05:34:42;;;;;;;63.45;47.40;;;;;;;21.48;25.77;95027.09;5076525;28;20040;-43
2020/12/23 05:37:09;;;;;;;72.40;47.63;;;;;;;21.14;26.49;95027.63;5076418;28;20389;-43
2020/12/23 05:39:37;;;;;;;74.45;48.85;;;;;;;21.04;26.53;95034.16;5076771;28;20056;-45
2020/12/23 05:42:04;;;;;;;63.13;46.70;;;;;;;21.84;25.73;95047.41;5078639;28;20055;-55
2020/12/23 05:44:32;;;;;;;67.80;48.10;;;;;;;21.51;26.02;95037.06;5078753;28;20048;-44
2020/12/23 05:46:59;;;;;;;67.10;46.33;;;;;;;21.68;25.63;95041.31;5080113;28;20052;-44
2020/12/23 05:49:26;;;;;;;90.40;66.45;;;;;;;21.75;25.37;95040.72;5076762;28;20052;-50
2020/12/23 05:51:54;;;;;;;89.30;67.15;;;;;;;21.87;25.13;95040.66;5076376;28;20057;-43
2020/12/23 05:54:21;;;;;;;74.15;52.75;;;;;;;22.00;24.84;95052.00;5076375;28;20052;-48
2020/12/23 05:56:52;;;;;;;72.43;53.45;;;;;;;21.88;25.38;95055.53;5075927;28;20044;-53
2020/12/23 05:59:20;;;;;;;70.68;51.78;;;;;;;21.86;25.36;95052.44;5076411;28;20056;-43
2020/12/23 06:01:49;;;;;;;74.22;53.03;;;;;;;21.73;25.63;95069.56;5076389;28;20402;-44
2020/12/23 06:04:17;;;;;;;68.68;50.40;;;;;;;21.84;25.52;95065.28;5076247;28;20390;-44
2020/12/23 06:06:45;;;;;;;71.43;49.10;;;;;;;21.84;25.67;95065.28;5075437;28;20049;-45
2020/12/23 06:09:15;;;;;;;65.47;48.67;;;;;;;21.76;25.37;95066.22;5075804;28;20052;-45
2020/12/23 06:11:55;;;;;;;64.18;48.20;;;;;;;21.74;25.54;95055.13;5076009;28;20059;-45
2020/12/23 06:14:24;;;;;;;76.38;54.88;;;;;;;21.91;25.31;95060.16;5056120;28;20049;-44
2020/12/23 06:17:04;;;;;;;74.15;52.95;;;;;;;21.50;25.96;95054.13;5056048;28;20056;-44
2020/12/23 06:19:38;;;;;;;74.63;53.90;;;;;;;21.57;25.91;95060.75;5073802;28;20051;-44
2020/12/23 06:22:07;;;;;;;75.32;53.13;;;;;;;21.24;26.54;95069.72;5074773;28;20056;-45
2020/12/23 06:24:34;;;;;;;79.10;53.95;;;;;;;21.24;26.62;95069.72;5075766;28;20060;-44
2020/12/23 06:27:04;;;;;;;74.13;53.05;;;;;;;21.21;27.10;95070.38;5075672;28;20052;-45
2020/12/23 06:29:35;;;;;;;76.10;52.63;;;;;;;21.14;26.65;95072.81;5075746;28;20040;-44
2020/12/23 06:32:09;;;;;;;73.30;52.78;;;;;;;21.04;27.07;95074.03;5075612;28;20052;-44
2020/12/23 06:34:38;;;;;;;76.75;53.05;;;;;;;20.91;27.12;95062.66;5075636;28;20055;-44
2020/12/23 06:37:16;;;;;;;75.63;55.17;;;;;;;21.19;26.95;95061.97;5075664;28;20055;-45
2020/12/23 06:39:45;;;;;;;87.85;62.92;;;;;;;21.38;26.57;95064.81;5075269;28;20059;-45
2020/12/23 06:42:12;;;;;;;84.43;61.00;;;;;;;21.31;26.63;95069.13;5079766;28;20055;-45
2020/12/23 06:44:42;;;;;;;83.72;59.58;;;;;;;21.41;26.98;95069.47;5079975;28;20049;-45
2020/12/23 06:47:12;;;;;;;78.72;56.42;;;;;;;21.35;26.86;95070.81;5075388;28;20036;-44
2020/12/23 06:49:40;;;;;;;81.60;55.28;;;;;;;21.63;26.49;95070.81;5075149;28;20048;-43
2020/12/23 06:52:22;;;;;;;79.28;57.20;;;;;;;21.91;25.75;95076.13;5075383;28;20056;-45
2020/12/23 06:55:02;;;;;;;78.25;55.50;;;;;;;21.79;25.88;95068.19;5074212;28;20048;-45
2020/12/23 06:57:35;;;;;;;74.60;54.40;;;;;;;21.84;27.14;95075.94;5075351;28;20123;-45
2020/12/23 07:00:02;;;;;;;72.88;47.88;;;;;;;21.90;26.35;95079.13;5075377;28;20053;-44
2020/12/23 07:02:33;;;;;;;61.63;45.22;;;;;;;22.17;26.77;95083.69;5075048;28;20049;-45
2020/12/23 07:05:00;;;;;;;59.03;42.30;;;;;;;22.30;26.31;95081.69;5075201;28;20439;-45
2020/12/23 07:07:34;;;;;;;51.78;40.22;;;;;;;21.74;26.63;95097.72;5075009;28;20382;-44
2020/12/23 07:10:24;;;;;;;60.63;44.95;;;;;;;21.96;26.41;95089.19;5064031;28;20357;-44
2020/12/23 07:13:05;;;;;;;50.67;38.28;;;;;;;22.90;25.22;95109.03;5064502;28;20040;-45
2020/12/23 07:15:49;;;;;;;47.85;35.42;;;;;;;23.19;24.95;95111.25;5074862;28;20266;-43
2020/12/23 07:18:25;;;;;;;46.28;34.15;;;;;;;23.26;24.81;95102.59;5067207;28;20048;-44
2020/12/23 07:20:59;;;;;;;37.50;28.98;;;;;;;23.41;24.36;95117.00;5074668;28;20056;-45
2020/12/23 07:23:32;;;;;;;38.95;29.35;;;;;;;23.38;24.60;95107.81;5074683;28;20057;-45
2020/12/23 07:26:09;;;;;;;42.75;29.90;;;;;;;23.57;24.13;95110.53;5074574;28;20059;-46
2020/12/23 07:28:41;;;;;;;43.63;32.10;;;;;;;23.30;24.72;95106.91;5056936;28;20452;-44
2020/12/23 07:31:09;;;;;;;45.95;33.40;;;;;;;23.34;24.89;95107.72;5074542;28;20489;-45
2020/12/23 07:33:38;;;;;;;33.53;24.45;;;;;;;23.95;24.33;95099.09;5074115;28;20048;-45
2020/12/23 07:36:06;;;;;;;25.10;19.27;;;;;;;24.16;23.96;95103.25;5063147;28;20044;-44
2020/12/23 07:38:36;;;;;;;16.90;11.60;;;;;;;24.53;23.87;95100.88;5054073;28;20045;-44
2020/12/23 07:41:03;;;;;;;9.65;7.38;;;;;;;25.20;22.94;95101.91;5054211;28;20049;-45
2020/12/23 07:43:30;;;;;;;9.15;6.00;;;;;;;25.19;23.16;95107.63;5069121;28;20041;-45
2020/12/23 07:45:58;;;;;;;11.40;5.63;;;;;;;24.57;23.64;95102.47;5074306;28;20048;-44
2020/12/23 07:48:28;;;;;;;6.50;5.00;;;;;;;24.25;24.36;95111.81;5073152;28;20048;-45
2020/12/23 07:50:57;;;;;;;6.10;4.85;;;;;;;24.96;23.29;95101.53;5074101;28;20522;-44
2020/12/23 07:53:27;;;;;;;6.32;5.40;;;;;;;25.03;23.27;95110.47;5074044;28;20049;-44
2020/12/23 07:55:58;;;;;;;7.22;5.28;;;;;;;25.16;23.13;95103.78;5071781;28;20059;-44
2020/12/23 07:58:25;;;;;;;7.13;5.03;;;;;;;25.73;22.35;95101.84;5054115;28;20056;-46
2020/12/23 08:00:52;;;;;;;7.38;4.80;;;;;;;25.46;22.74;95105.69;5066819;28;20048;-44
2020/12/23 08:03:30;;;;;;;6.75;4.90;;;;;;;25.90;22.24;95105.09;5073856;28;20059;-45
2020/12/23 08:06:10;;;;;;;6.07;4.90;;;;;;;26.09;22.31;95119.09;5073432;28;20344;-45
2020/12/23 08:08:41;;;;;;;6.47;4.72;;;;;;;25.84;22.36;95101.22;5053958;28;20056;-45
2020/12/23 08:11:09;;;;;;;7.35;4.78;;;;;;;26.23;21.97;95104.31;5068333;28;20044;-43
2020/12/23 08:13:37;;;;;;;7.88;4.43;;;;;;;26.15;21.96;95103.47;5089864;28;20051;-45
2020/12/23 08:16:04;;;;;;;6.22;4.30;;;;;;;26.28;21.84;95094.00;5094003;28;20047;-44
2020/12/23 08:18:32;;;;;;;5.40;3.97;;;;;;;26.38;21.85;95106.78;5094075;28;20382;-44
2020/12/23 08:21:06;;;;;;;6.75;4.13;;;;;;;26.45;21.91;95110.66;5069550;28;20052;-45
2020/12/23 08:23:33;;;;;;;5.63;4.93;;;;;;;27.23;20.59;95105.91;5053709;28;20060;-46
2020/12/23 08:26:01;;;;;;;5.53;4.85;;;;;;;26.74;21.38;95112.44;5053727;28;20052;-44
2020/12/23 08:28:28;;;;;;;8.13;5.00;;;;;;;26.52;21.43;95113.41;5052728;28;20053;-44
2020/12/23 08:30:56;;;;;;;7.55;5.00;;;;;;;26.54;21.64;95116.47;5065865;28;20047;-44
2020/12/23 08:33:23;;;;;;;6.82;4.90;;;;;;;26.52;21.54;95124.13;5056116;28;20056;-45
2020/12/23 08:35:57;;;;;;;5.65;4.80;;;;;;;26.66;21.70;95121.59;5056196;28;20051;-44
2020/12/23 08:38:25;;;;;;;6.82;5.18;;;;;;;26.62;21.40;95115.44;5073788;28;20443;-45
2020/12/23 08:40:57;;;;;;;6.35;5.32;;;;;;;26.73;21.37;95113.59;5073440;28;20052;-44
2020/12/23 08:43:26;;;;;;;8.95;5.35;;;;;;;26.78;21.19;95104.44;5087471;28;20055;-44
2020/12/23 08:45:58;;;;;;;7.65;5.05;;;;;;;26.85;20.96;95097.22;5096915;28;20051;-45
2020/12/23 08:48:27;;;;;;;8.02;5.30;;;;;;;26.84;21.35;95097.59;5098041;28;20052;-45
2020/12/23 08:50:59;;;;;;;8.38;5.15;;;;;;;26.88;21.16;95091.09;5086048;28;20052;-45
2020/12/23 08:53:33;;;;;;;8.95;5.05;;;;;;;26.77;21.10;95090.25;5077548;28;20040;-45
2020/12/23 08:56:19;;;;;;;8.52;4.68;;;;;;;26.80;21.30;95081.44;5077578;28;20052;-44
2020/12/23 08:58:49;;;;;;;8.60;5.20;;;;;;;26.75;20.97;95079.13;5077343;28;20047;-52
2020/12/23 09:01:23;;;;;;;7.63;5.10;;;;;;;26.65;21.44;95071.78;5075863;28;20450;-49
2020/12/23 09:04:05;;;;;;;6.60;4.72;;;;;;;27.12;20.89;95065.63;5077300;28;20051;-44
2020/12/23 09:06:36;;;;;;;5.85;4.78;;;;;;;26.89;20.92;95073.09;5077443;28;20056;-45
2020/12/23 09:09:30;;;;;;;7.22;5.00;;;;;;;26.82;21.02;95060.41;5077225;28;20072;-45
2020/12/23 09:11:58;;;;;;;5.88;4.75;;;;;;;27.03;21.04;95063.25;5077187;28;20045;-44
2020/12/23 09:14:34;;;;;;;5.75;4.22;;;;;;;27.19;20.71;95059.50;5076794;28;20051;-44
2020/12/23 09:17:07;;;;;;;7.13;4.40;;;;;;;27.07;20.83;95055.25;5077215;28;20371;-45
2020/12/23 09:19:48;;;;;;;5.03;4.25;;;;;;;26.85;21.48;95046.25;5077051;28;20053;-44
2020/12/23 09:22:32;;;;;;;7.03;5.00;;;;;;;26.89;21.12;95052.41;5076957;28;20057;-45
2020/12/23 09:25:22;;;;;;;5.95;3.90;;;;;;;26.63;21.17;95057.97;5076484;28;20048;-44
2020/12/23 09:27:54;;;;;;;6.57;3.95;;;;;;;26.62;21.00;95053.75;5076945;28;20059;-44
2020/12/23 09:30:39;;;;;;;5.40;4.45;;;;;;;26.64;21.35;95062.19;5076952;28;20048;-45
2020/12/23 09:33:21;;;;;;;7.55;5.20;;;;;;;26.49;21.21;95049.81;5076721;28;20047;-44
2020/12/23 09:36:03;;;;;;;4.88;4.30;;;;;;;26.84;20.73;95044.72;5058965;28;20052;-45
2020/12/23 09:38:36;;;;;;;8.43;4.65;;;;;;;26.94;20.93;95035.97;5056772;28;20395;-45
2020/12/23 09:41:05;;;;;;;6.65;4.53;;;;;;;26.33;21.43;95036.66;5039115;28;20371;-44
2020/12/23 09:43:34;;;;;;;5.78;4.18;;;;;;;26.57;21.21;95052.19;5071403;28;20044;-44
2020/12/23 09:46:05;;;;;;;5.85;5.00;;;;;;;26.47;21.03;95052.09;5076528;28;20044;-44
2020/12/23 09:48:32;;;;;;;7.65;5.80;;;;;;;26.93;21.01;95037.09;5076660;28;20055;-44
2020/12/23 09:50:59;;;;;;;8.55;7.00;;;;;;;26.97;20.91;95048.63;5076453;28;20074;-44
2020/12/23 09:53:27;;;;;;;9.27;7.50;;;;;;;26.92;20.91;95040.94;5076094;28;20051;-43
2020/12/23 09:55:55;;;;;;;8.48;7.28;;;;;;;27.03;21.08;95044.47;5076231;28;20055;-44
2020/12/23 09:58:22;;;;;;;11.02;6.90;;;;;;;27.09;21.04;95041.44;5076542;28;20056;-44
2020/12/23 10:00:51;;;;;;;5.03;4.50;;;;;;;26.95;20.84;95029.44;5076405;28;20049;-44
2020/12/23 10:03:18;;;;;;;5.55;4.18;;;;;;;27.52;20.14;95035.13;5076115;28;20052;-43
2020/12/23 10:05:46;;;;;;;5.47;3.75;;;;;;;27.31;20.22;95030.41;5075814;28;20458;-45
2020/12/23 10:08:13;;;;;;;5.82;4.50;;;;;;;27.10;20.46;95018.84;5076249;28;20064;-45
2020/12/23 10:10:40;;;;;;;6.70;4.50;;;;;;;27.39;20.31;95025.88;5076160;28;20048;-45
2020/12/23 10:13:07;;;;;;;7.03;3.92;;;;;;;27.56;20.02;95021.69;5087870;28;20048;-45
2020/12/23 10:15:34;;;;;;;4.68;4.15;;;;;;;27.63;20.12;95014.47;5078192;28;20048;-44
2020/12/23 10:18:02;;;;;;;5.78;4.05;;;;;;;27.51;19.98;95022.84;5069233;28;20049;-44
2020/12/23 10:20:29;;;;;;;8.20;6.50;;;;;;;27.40;19.99;95014.00;5096214;28;20055;-45
2020/12/23 10:22:56;;;;;;;9.73;7.28;;;;;;;27.66;19.59;95018.31;5095904;28;20048;-44
2020/12/23 10:25:23;;;;;;;9.27;6.95;;;;;;;27.66;19.80;95012.19;5079702;28;20044;-45
2020/12/23 10:27:50;;;;;;;10.32;7.70;;;;;;;27.46;20.47;95004.41;5076052;28;20044;-45
2020/12/23 10:30:17;;;;;;;9.25;7.30;;;;;;;27.84;20.12;95005.69;5075860;28;20056;-46
2020/12/23 10:32:44;;;;;;;8.75;6.88;;;;;;;28.29;20.08;94994.63;5075761;28;20056;-44
2020/12/23 10:35:11;;;;;;;8.00;6.15;;;;;;;28.91;18.95;94996.91;5069988;28;20045;-44
2020/12/23 10:37:38;;;;;;;9.10;5.70;;;;;;;28.98;19.47;94996.88;5056424;28;20048;-50
2020/12/23 10:40:06;;;;;;;5.90;4.70;;;;;;;29.35;18.64;94989.06;5054704;28;20045;-43
2020/12/23 10:42:33;;;;;;;7.03;4.60;;;;;;;29.82;18.48;94988.84;5062631;28;20056;-47
2020/12/23 10:45:00;;;;;;;5.28;3.85;;;;;;;29.92;18.34;94983.38;5074933;28;20051;-43
2020/12/23 10:47:28;;;;;;;8.13;4.20;;;;;;;30.20;17.85;94979.00;5066496;28;20052;-45
2020/12/23 10:49:55;;;;;;;8.77;3.90;;;;;;;30.16;17.82;94976.31;5055472;28;20387;-43
2020/12/23 10:52:22;;;;;;;6.50;3.30;;;;;;;30.39;17.45;94978.44;5055299;28;20391;-44
2020/12/23 10:54:49;;;;;;;8.73;2.95;;;;;;;30.20;17.34;94977.09;5065369;28;20049;-52
2020/12/23 10:57:16;;;;;;;5.60;2.80;;;;;;;29.33;18.11;94980.59;5075381;28;20053;-47
2020/12/23 10:59:43;;;;;;;6.50;3.13;;;;;;;29.14;18.30;94981.81;5075640;28;20056;-48
2020/12/23 11:02:10;;;;;;;7.00;2.72;;;;;;;29.05;18.52;94976.09;5059675;28;20044;-43
2020/12/23 11:04:38;;;;;;;3.67;3.05;;;;;;;28.75;18.80;94990.00;5057070;28;20364;-45
2020/12/23 11:07:05;;;;;;;6.18;3.53;;;;;;;28.75;18.56;94990.00;5054556;28;20356;-45
2020/12/23 11:09:32;;;;;;;5.38;3.00;;;;;;;28.62;18.94;94985.38;5055078;28;20380;-44
2020/12/23 11:11:59;;;;;;;3.75;2.97;;;;;;;28.36;19.25;94984.63;5057411;28;20051;-44
2020/12/23 11:14:26;;;;;;;4.80;3.13;;;;;;;28.22;19.54;94985.41;5073680;28;20060;-45
2020/12/23 11:16:53;;;;;;;7.05;3.65;;;;;;;28.36;19.20;94986.56;5064534;28;20048;-44
2020/12/23 11:19:20;;;;;;;4.05;3.30;;;;;;;27.90;19.87;94976.53;5074875;28;20048;-45
2020/12/23 11:21:48;;;;;;;5.30;3.35;;;;;;;28.18;19.25;94979.25;5074902;28;20061;-44
2020/12/23 11:24:15;;;;;;;8.82;3.92;;;;;;;28.05;19.43;94975.41;5074349;28;20048;-45
2020/12/23 11:26:42;;;;;;;5.97;3.80;;;;;;;27.74;19.88;94981.50;5074599;28;20055;-44
2020/12/23 11:29:09;;;;;;;5.35;4.00;;;;;;;27.82;20.07;94970.38;5074607;28;20658;-45